sensor_id;sensor_type;location;lat;lon;timestamp;temperature;humidity
40622;DHT22;26324;52.040;11.528;2024-02-26T05:41:30;2.30;81.40
40622;DHT22;26324;52.040;11.528;2024-02-26T05:43:58;2.00;82.90
40622;DHT22;26324;52.040;11.528;2024-02-26T05:46:26;1.90;83.60
40622;DHT22;26324;52.040;11.528;2024-02-26T05:48:54;1.80;84.00
40622;DHT22;26324;52.040;11.528;2024-02-26T05:51:22;1.80;84.30
40622;DHT22;26324;52.040;11.528;2024-02-26T05:53:49;1.80;84.40
40622;DHT22;26324;52.040;11.528;2024-02-26T05:58:50;1.80;84.70
40622;DHT22;26324;52.040;11.528;2024-02-26T06:01:19;1.80;84.90
40622;DHT22;26324;52.040;11.528;2024-02-26T06:03:47;1.80;85.10
40622;DHT22;26324;52.040;11.528;2024-02-26T06:06:14;1.80;85.30
40622;DHT22;26324;52.040;11.528;2024-02-26T06:08:43;2.40;84.10
40622;DHT22;26324;52.040;11.528;2024-02-26T06:11:11;2.00;84.70
40622;DHT22;26324;52.040;11.528;2024-02-26T06:13:38;1.90;85.10
40622;DHT22;26324;52.040;11.528;2024-02-26T06:16:07;1.90;85.40
40622;DHT22;26324;52.040;11.528;2024-02-26T06:18:35;1.90;85.80
40622;DHT22;26324;52.040;11.528;2024-02-26T06:21:02;2.00;85.80
40622;DHT22;26324;52.040;11.528;2024-02-26T06:23:30;2.00;85.60
40622;DHT22;26324;52.040;11.528;2024-02-26T06:25:57;2.00;85.60
40622;DHT22;26324;52.040;11.528;2024-02-26T06:28:25;2.00;85.70
40622;DHT22;26324;52.040;11.528;2024-02-26T06:30:52;1.90;85.70
40622;DHT22;26324;52.040;11.528;2024-02-26T06:33:19;2.10;86.20
40622;DHT22;26324;52.040;11.528;2024-02-26T06:35:47;2.10;86.20
40622;DHT22;26324;52.040;11.528;2024-02-26T06:38:14;2.30;86.00
40622;DHT22;26324;52.040;11.528;2024-02-26T06:40:42;2.30;86.00
40622;DHT22;26324;52.040;11.528;2024-02-26T06:43:09;2.40;85.70
40622;DHT22;26324;52.040;11.528;2024-02-26T06:45:37;2.40;85.50
40622;DHT22;26324;52.040;11.528;2024-02-26T06:48:04;2.50;85.30
40622;DHT22;26324;52.040;11.528;2024-02-26T06:52:59;2.50;85.20
40622;DHT22;26324;52.040;11.528;2024-02-26T06:55:27;2.50;85.20
40622;DHT22;26324;52.040;11.528;2024-02-26T08:34:05;5.80;77.50
40622;DHT22;26324;52.040;11.528;2024-02-26T08:36:34;5.50;78.20
40622;DHT22;26324;52.040;11.528;2024-02-26T08:39:02;5.40;79.50
40622;DHT22;26324;52.040;11.528;2024-02-26T13:03:52;10.00;73.00
40622;DHT22;26324;52.040;11.528;2024-02-26T13:06:20;9.90;73.90
40622;DHT22;26324;52.040;11.528;2024-02-26T14:27:58;11.00;69.50
40622;DHT22;26324;52.040;11.528;2024-02-26T14:30:26;10.80;70.10
40622;DHT22;26324;52.040;11.528;2024-02-26T14:32:54;10.30;71.50
40622;DHT22;26324;52.040;11.528;2024-02-26T14:35:22;10.20;72.40
40622;DHT22;26324;52.040;11.528;2024-02-26T14:37:49;10.10;72.90
40622;DHT22;26324;52.040;11.528;2024-02-26T14:40:19;10.10;72.60
40622;DHT22;26324;52.040;11.528;2024-02-26T15:12:26;14.80;57.70
40622;DHT22;26324;52.040;11.528;2024-02-26T15:14:58;15.10;56.90
40622;DHT22;26324;52.040;11.528;2024-02-26T15:17:27;14.50;57.10
40622;DHT22;26324;52.040;11.528;2024-02-26T15:22:29;13.20;60.60
40622;DHT22;26324;52.040;11.528;2024-02-26T15:24:57;12.50;62.70
40622;DHT22;26324;52.040;11.528;2024-02-26T16:27:08;10.50;70.50
40622;DHT22;26324;52.040;11.528;2024-02-26T16:29:36;9.90;72.30
40622;DHT22;26324;52.040;11.528;2024-02-26T16:32:03;9.70;73.00
40622;DHT22;26324;52.040;11.528;2024-02-26T16:34:31;9.50;73.70
40622;DHT22;26324;52.040;11.528;2024-02-26T16:36:58;9.50;73.60
40622;DHT22;26324;52.040;11.528;2024-02-26T16:39:28;9.40;73.90
40622;DHT22;26324;52.040;11.528;2024-02-26T16:41:55;9.40;74.20
40622;DHT22;26324;52.040;11.528;2024-02-26T16:44:23;9.40;74.20
40622;DHT22;26324;52.040;11.528;2024-02-26T16:46:50;9.30;74.50
40622;DHT22;26324;52.040;11.528;2024-02-26T16:49:17;9.30;74.60
40622;DHT22;26324;52.040;11.528;2024-02-26T16:51:45;9.30;75.00
40622;DHT22;26324;52.040;11.528;2024-02-26T16:54:12;9.20;75.00
40622;DHT22;26324;52.040;11.528;2024-02-26T16:56:40;9.20;75.30
40622;DHT22;26324;52.040;11.528;2024-02-26T16:59:07;9.10;75.50
40622;DHT22;26324;52.040;11.528;2024-02-26T17:01:35;9.10;75.60
40622;DHT22;26324;52.040;11.528;2024-02-26T17:04:03;9.10;75.90
40622;DHT22;26324;52.040;11.528;2024-02-26T17:06:30;9.00;76.10
40622;DHT22;26324;52.040;11.528;2024-02-26T17:08:58;9.00;76.40
40622;DHT22;26324;52.040;11.528;2024-02-26T17:11:25;8.90;76.50
40622;DHT22;26324;52.040;11.528;2024-02-26T17:13:55;8.90;76.50
40622;DHT22;26324;52.040;11.528;2024-02-26T17:16:22;8.90;76.60
40622;DHT22;26324;52.040;11.528;2024-02-26T17:18:49;8.90;76.60
40622;DHT22;26324;52.040;11.528;2024-02-26T17:21:17;8.90;76.60
40622;DHT22;26324;52.040;11.528;2024-02-26T17:23:45;8.90;76.60
40622;DHT22;26324;52.040;11.528;2024-02-26T17:26:23;8.80;76.60
40622;DHT22;26324;52.040;11.528;2024-02-26T17:28:55;8.80;76.70
40622;DHT22;26324;52.040;11.528;2024-02-26T17:31:23;8.80;76.50
40622;DHT22;26324;52.040;11.528;2024-02-26T17:33:52;8.90;76.60
40622;DHT22;26324;52.040;11.528;2024-02-26T17:36:19;8.80;76.40
40622;DHT22;26324;52.040;11.528;2024-02-26T17:38:47;8.80;76.50
40622;DHT22;26324;52.040;11.528;2024-02-26T17:41:15;8.80;76.40
40622;DHT22;26324;52.040;11.528;2024-02-26T17:43:43;8.90;76.30
40622;DHT22;26324;52.040;11.528;2024-02-26T17:46:10;8.80;76.30
40622;DHT22;26324;52.040;11.528;2024-02-26T17:48:37;8.80;76.40
40622;DHT22;26324;52.040;11.528;2024-02-26T17:51:06;8.80;76.20
40622;DHT22;26324;52.040;11.528;2024-02-26T17:53:34;8.80;76.10
40622;DHT22;26324;52.040;11.528;2024-02-26T17:56:01;8.80;76.10
40622;DHT22;26324;52.040;11.528;2024-02-26T17:58:33;8.90;76.10
40622;DHT22;26324;52.040;11.528;2024-02-26T18:01:01;8.90;75.80
40622;DHT22;26324;52.040;11.528;2024-02-26T18:05:57;8.90;75.30
40622;DHT22;26324;52.040;11.528;2024-02-26T18:08:25;9.00;75.20
40622;DHT22;26324;52.040;11.528;2024-02-26T18:10:52;9.00;75.20
40622;DHT22;26324;52.040;11.528;2024-02-26T18:13:20;8.90;74.80
40622;DHT22;26324;52.040;11.528;2024-02-26T18:15:47;9.00;74.70
40622;DHT22;26324;52.040;11.528;2024-02-26T18:18:15;9.00;74.70
40622;DHT22;26324;52.040;11.528;2024-02-26T18:20:42;9.00;74.60
40622;DHT22;26324;52.040;11.528;2024-02-26T18:23:10;9.00;74.40
40622;DHT22;26324;52.040;11.528;2024-02-26T18:25:37;9.10;74.40
40622;DHT22;26324;52.040;11.528;2024-02-26T18:28:04;9.00;74.40
40622;DHT22;26324;52.040;11.528;2024-02-26T18:30:32;9.00;74.00
40622;DHT22;26324;52.040;11.528;2024-02-26T18:32:59;9.00;74.40
40622;DHT22;26324;52.040;11.528;2024-02-26T18:35:27;9.00;74.40
40622;DHT22;26324;52.040;11.528;2024-02-26T18:37:54;9.00;74.20
40622;DHT22;26324;52.040;11.528;2024-02-26T18:40:23;9.00;74.30
40622;DHT22;26324;52.040;11.528;2024-02-26T18:42:51;9.00;74.00
40622;DHT22;26324;52.040;11.528;2024-02-26T18:45:18;9.00;74.00
40622;DHT22;26324;52.040;11.528;2024-02-26T18:47:46;8.90;74.40
40622;DHT22;26324;52.040;11.528;2024-02-26T18:50:17;8.90;74.30
40622;DHT22;26324;52.040;11.528;2024-02-26T18:52:44;8.90;74.20
40622;DHT22;26324;52.040;11.528;2024-02-26T18:55:13;8.90;74.10
40622;DHT22;26324;52.040;11.528;2024-02-26T18:57:41;9.00;74.00
40622;DHT22;26324;52.040;11.528;2024-02-26T19:00:08;8.80;74.20
40622;DHT22;26324;52.040;11.528;2024-02-26T19:02:37;8.80;74.20
40622;DHT22;26324;52.040;11.528;2024-02-26T19:05:04;8.80;74.60
40622;DHT22;26324;52.040;11.528;2024-02-26T19:07:32;8.80;74.50
40622;DHT22;26324;52.040;11.528;2024-02-26T19:09:59;8.70;74.60
40622;DHT22;26324;52.040;11.528;2024-02-26T19:12:26;8.60;74.70
40622;DHT22;26324;52.040;11.528;2024-02-26T19:14:54;8.60;75.10
40622;DHT22;26324;52.040;11.528;2024-02-26T19:17:21;8.50;75.20
40622;DHT22;26324;52.040;11.528;2024-02-26T19:19:49;8.50;75.20
40622;DHT22;26324;52.040;11.528;2024-02-26T19:22:17;8.50;75.00
40622;DHT22;26324;52.040;11.528;2024-02-26T19:24:44;8.60;75.10
40622;DHT22;26324;52.040;11.528;2024-02-26T19:27:12;8.50;75.10
40622;DHT22;26324;52.040;11.528;2024-02-26T19:29:40;8.50;75.10
40622;DHT22;26324;52.040;11.528;2024-02-26T19:32:08;8.50;75.20
40622;DHT22;26324;52.040;11.528;2024-02-26T19:34:38;8.50;75.10
40622;DHT22;26324;52.040;11.528;2024-02-26T19:37:09;8.40;75.30
40622;DHT22;26324;52.040;11.528;2024-02-26T19:39:36;8.40;75.40
40622;DHT22;26324;52.040;11.528;2024-02-26T19:42:04;8.40;75.30
40622;DHT22;26324;52.040;11.528;2024-02-26T19:44:32;8.30;75.20
40622;DHT22;26324;52.040;11.528;2024-02-26T19:47:00;8.40;75.50
40622;DHT22;26324;52.040;11.528;2024-02-26T19:49:28;8.30;75.30
40622;DHT22;26324;52.040;11.528;2024-02-26T19:51:55;8.40;75.40
40622;DHT22;26324;52.040;11.528;2024-02-26T19:54:23;8.30;75.40
40622;DHT22;26324;52.040;11.528;2024-02-26T20:56:11;9.00;71.70
40622;DHT22;26324;52.040;11.528;2024-02-26T20:58:40;8.50;72.60
40622;DHT22;26324;52.040;11.528;2024-02-26T21:01:07;8.20;73.60
40622;DHT22;26324;52.040;11.528;2024-02-26T21:03:35;8.00;74.40
40622;DHT22;26324;52.040;11.528;2024-02-26T21:06:03;8.00;74.60
40622;DHT22;26324;52.040;11.528;2024-02-26T21:08:32;8.00;74.60
40622;DHT22;26324;52.040;11.528;2024-02-26T21:13:35;8.00;75.10
40622;DHT22;26324;52.040;11.528;2024-02-26T21:16:04;7.90;75.00
40622;DHT22;26324;52.040;11.528;2024-02-26T21:18:31;7.80;75.40
40622;DHT22;26324;52.040;11.528;2024-02-26T21:21:02;7.70;75.80
40622;DHT22;26324;52.040;11.528;2024-02-26T21:23:29;7.60;76.30
40622;DHT22;26324;52.040;11.528;2024-02-26T21:25:57;7.60;76.60
